createdAt,value
2023-04-17T00:00:08.460Z,3.40
2023-04-17T00:02:40.634Z,3.80
2023-04-17T00:05:09.591Z,3.10
2023-04-17T00:07:41.343Z,3.70
2023-04-17T00:10:10.644Z,4.00
2023-04-17T00:12:39.103Z,3.70
2023-04-17T00:15:08.158Z,3.90
2023-04-17T00:17:37.972Z,3.40
2023-04-17T00:20:10.868Z,3.40
2023-04-17T00:22:39.177Z,3.20
2023-04-17T00:25:10.621Z,4.00
2023-04-17T00:27:39.724Z,3.60
2023-04-17T00:30:08.854Z,2.90
2023-04-17T00:32:38.125Z,3.00
2023-04-17T00:35:07.347Z,3.50
2023-04-17T00:37:36.437Z,3.80
2023-04-17T00:40:05.306Z,4.10
2023-04-17T00:42:33.506Z,3.70
2023-04-17T00:45:01.968Z,3.90
2023-04-17T00:47:30.732Z,3.10
2023-04-17T00:49:59.165Z,4.60
2023-04-17T00:52:30.156Z,3.40
2023-04-17T00:54:58.783Z,3.80
2023-04-17T00:57:27.920Z,3.00
2023-04-17T00:59:56.871Z,4.20
2023-04-17T01:02:26.333Z,3.50
2023-04-17T01:04:54.686Z,3.00
2023-04-17T01:07:23.521Z,3.30
2023-04-17T01:09:51.855Z,3.00
2023-04-17T01:12:21.661Z,3.20
2023-04-17T01:14:51.639Z,4.30
2023-04-17T01:17:20.703Z,3.20
2023-04-17T01:19:49.561Z,3.30
2023-04-17T01:22:17.975Z,3.40
2023-04-17T01:24:46.878Z,3.30
2023-04-17T01:27:15.702Z,3.70
2023-04-17T01:29:45.491Z,3.70
2023-04-17T01:32:13.683Z,3.60
2023-04-17T01:34:41.941Z,3.20
2023-04-17T01:37:10.318Z,3.40
2023-04-17T01:39:38.515Z,4.80
2023-04-17T01:42:06.980Z,3.10
2023-04-17T01:44:37.712Z,3.40
2023-04-17T01:47:06.097Z,3.60
2023-04-17T01:49:34.432Z,3.30
2023-04-17T01:52:02.768Z,3.70
2023-04-17T01:54:31.261Z,4.10
2023-04-17T01:56:59.555Z,3.20
2023-04-17T01:59:28.021Z,3.30
2023-04-17T02:01:57.486Z,3.20
2023-04-17T02:04:26.130Z,4.10
2023-04-17T02:06:54.899Z,3.40
2023-04-17T02:09:23.103Z,3.90
2023-04-17T02:11:51.220Z,3.70
2023-04-17T02:14:20.972Z,3.10
2023-04-17T02:16:50.327Z,3.50
2023-04-17T02:19:18.467Z,3.60
2023-04-17T02:21:46.622Z,3.30
2023-04-17T02:24:14.713Z,3.90
2023-04-17T02:26:43.091Z,3.60
2023-04-17T02:29:14.361Z,3.80
2023-04-17T02:31:43.443Z,3.10
2023-04-17T02:34:12.861Z,3.80
2023-04-17T02:36:41.544Z,3.80
2023-04-17T02:39:10.198Z,3.90
2023-04-17T02:41:40.958Z,3.60
2023-04-17T02:44:09.772Z,4.30
2023-04-17T02:46:38.398Z,4.40
2023-04-17T02:49:07.621Z,4.00
2023-04-17T02:51:48.529Z,4.80
2023-04-17T02:54:16.798Z,4.70
2023-04-17T02:56:45.030Z,4.90
2023-04-17T02:59:14.029Z,5.40
2023-04-17T03:01:42.374Z,5.50
2023-04-17T03:04:11.221Z,4.30
2023-04-17T03:06:40.085Z,4.40
2023-04-17T03:09:08.941Z,3.90
2023-04-17T03:11:37.116Z,3.40
2023-04-17T03:14:05.994Z,5.30
2023-04-17T03:16:34.609Z,4.30
2023-04-17T03:19:03.435Z,3.60
2023-04-17T03:21:31.988Z,3.90
2023-04-17T03:24:00.674Z,3.50
2023-04-17T03:26:29.234Z,3.70
2023-04-17T03:28:59.279Z,3.60
2023-04-17T03:31:28.292Z,3.90
2023-04-17T03:33:56.603Z,4.80
2023-04-17T03:36:26.095Z,3.80
2023-04-17T03:38:56.014Z,3.80
2023-04-17T03:41:24.283Z,4.20
2023-04-17T03:43:52.657Z,4.00
2023-04-17T03:46:21.434Z,3.20
2023-04-17T03:48:49.822Z,4.30
2023-04-17T03:51:18.717Z,3.60
2023-04-17T03:53:47.611Z,3.90
2023-04-17T03:56:16.012Z,3.80
2023-04-17T03:58:44.991Z,3.80
2023-04-17T04:01:14.737Z,4.10
2023-04-17T04:03:55.323Z,4.30
2023-04-17T04:06:24.235Z,2.90
2023-04-17T04:08:52.848Z,3.80
2023-04-17T04:11:21.681Z,3.60
2023-04-17T04:13:50.224Z,3.60
2023-04-17T04:16:18.485Z,3.60
2023-04-17T04:18:47.253Z,3.10
2023-04-17T04:21:16.208Z,3.60
2023-04-17T04:23:45.635Z,3.70
2023-04-17T04:29:03.924Z,2.90
2023-04-17T04:31:51.122Z,3.40
2023-04-17T04:34:25.523Z,2.50
2023-04-17T04:36:54.914Z,3.30
2023-04-17T04:39:44.483Z,2.20
2023-04-17T04:42:22.052Z,2.80
2023-04-17T04:45:14.054Z,2.60
2023-04-17T04:47:44.315Z,3.10
2023-04-17T04:50:13.139Z,3.00
2023-04-17T04:52:42.036Z,2.70
2023-04-17T04:55:22.087Z,3.00
2023-04-17T04:57:54.488Z,2.70
2023-04-17T05:00:24.053Z,2.60
2023-04-17T05:02:55.991Z,2.50
2023-04-17T05:05:26.069Z,2.90
2023-04-17T05:07:55.357Z,2.30
2023-04-17T05:10:26.561Z,2.70
2023-04-17T05:12:59.703Z,2.10
2023-04-17T05:15:28.288Z,2.70
2023-04-17T05:17:57.199Z,2.70
2023-04-17T05:20:26.796Z,2.50
2023-04-17T05:22:57.620Z,2.60
2023-04-17T05:25:26.069Z,3.20
2023-04-17T05:27:55.633Z,2.60
2023-04-17T05:30:24.013Z,2.50
2023-04-17T05:33:00.948Z,2.40
2023-04-17T05:35:49.483Z,3.20
2023-04-17T05:38:18.483Z,2.30
2023-04-17T05:40:46.855Z,2.90
2023-04-17T05:43:15.342Z,2.80
2023-04-17T05:45:43.840Z,2.50
2023-04-17T05:48:12.151Z,2.80
2023-04-17T05:50:40.445Z,3.30
2023-04-17T05:53:09.146Z,3.00
2023-04-17T05:55:41.810Z,2.50
2023-04-17T06:00:43.923Z,3.00
2023-04-17T06:03:13.884Z,2.90
2023-04-17T06:05:43.062Z,2.60
2023-04-17T06:08:12.644Z,3.20
2023-04-17T06:10:46.046Z,3.30
2023-04-17T06:13:14.622Z,2.90
2023-04-17T06:15:46.893Z,2.80
2023-04-17T06:18:17.978Z,3.50
2023-04-17T06:20:46.748Z,2.60
2023-04-17T06:23:19.382Z,2.50
2023-04-17T06:25:47.893Z,3.10
2023-04-17T06:28:16.599Z,2.50
2023-04-17T06:30:45.538Z,2.50
2023-04-17T06:33:13.997Z,2.80
2023-04-17T06:35:42.507Z,2.40
2023-04-17T06:38:20.954Z,2.40
2023-04-17T06:40:50.815Z,2.90
2023-04-17T06:43:23.786Z,3.50
2023-04-17T06:45:52.438Z,2.70
2023-04-17T06:48:20.872Z,2.10
2023-04-17T06:50:49.667Z,2.50
2023-04-17T06:53:21.867Z,2.30
2023-04-17T06:55:50.511Z,2.00
2023-04-17T06:58:18.793Z,2.80
2023-04-17T07:00:55.335Z,2.10
2023-04-17T07:04:09.227Z,2.40
2023-04-17T07:06:35.702Z,2.20
2023-04-17T07:09:30.044Z,2.40
2023-04-17T07:11:58.520Z,2.60
2023-04-17T07:14:27.551Z,2.10
2023-04-17T07:16:55.877Z,2.50
2023-04-17T07:19:24.271Z,2.60
2023-04-17T07:21:53.413Z,1.70
2023-04-17T07:24:28.292Z,2.00
2023-04-17T07:26:59.769Z,2.00
2023-04-17T07:29:28.069Z,2.70
2023-04-17T07:32:13.823Z,3.00
2023-04-17T07:34:46.328Z,2.20
2023-04-17T07:37:17.797Z,1.40
2023-04-17T07:39:49.404Z,1.80
2023-04-17T07:42:17.597Z,1.70
2023-04-17T07:44:47.200Z,1.80
2023-04-17T07:47:15.657Z,2.30
2023-04-17T07:49:49.163Z,2.50
2023-04-17T07:52:18.333Z,1.70
2023-04-17T07:54:46.809Z,2.00
2023-04-17T07:57:18.225Z,1.80
2023-04-17T07:59:46.910Z,2.50
2023-04-17T08:02:16.942Z,2.20
2023-04-17T08:04:46.124Z,2.00
2023-04-17T08:07:14.773Z,1.80
2023-04-17T08:09:44.078Z,1.90
2023-04-17T08:12:12.848Z,2.00
2023-04-17T08:14:41.214Z,2.30
2023-04-17T08:17:09.681Z,1.60
2023-04-17T08:19:38.186Z,1.70
2023-04-17T08:22:07.416Z,1.60
2023-04-17T08:24:36.057Z,1.40
2023-04-17T08:27:05.335Z,1.90
2023-04-17T08:29:34.109Z,1.40
2023-04-17T08:32:14.096Z,2.20
2023-04-17T08:34:44.187Z,1.60
2023-04-17T08:37:12.762Z,1.60
2023-04-17T08:39:44.088Z,2.10
2023-04-17T08:42:17.410Z,3.20
2023-04-17T08:44:47.100Z,1.90
2023-04-17T08:47:17.782Z,2.30
2023-04-17T08:49:47.383Z,1.60
2023-04-17T08:52:16.905Z,1.70
2023-04-17T08:54:45.543Z,2.10
2023-04-17T08:57:38.512Z,2.40
2023-04-17T09:00:12.162Z,1.80
2023-04-17T09:02:54.555Z,1.40
2023-04-17T09:05:23.883Z,2.00
2023-04-17T09:08:16.030Z,1.90
2023-04-17T09:10:48.744Z,1.80
2023-04-17T09:13:18.668Z,1.50
2023-04-17T09:15:48.665Z,2.60
2023-04-17T09:18:23.912Z,1.60
2023-04-17T09:20:52.562Z,1.50
2023-04-17T09:23:22.854Z,2.00
2023-04-17T09:26:11.023Z,1.80
2023-04-17T09:28:40.434Z,1.60
2023-04-17T09:31:27.054Z,1.70
2023-04-17T09:33:59.980Z,1.50
2023-04-17T09:36:32.794Z,1.40
2023-04-17T09:39:21.117Z,1.60
2023-04-17T09:41:49.450Z,1.50
2023-04-17T09:44:38.086Z,1.40
2023-04-17T09:47:07.909Z,1.10
2023-04-17T09:49:45.101Z,1.40
2023-04-17T09:52:23.955Z,1.60
2023-04-17T09:54:54.649Z,1.60
2023-04-17T09:57:22.932Z,1.80
2023-04-17T09:59:51.521Z,1.50
2023-04-17T10:02:20.739Z,1.40
2023-04-17T10:04:49.070Z,1.60
2023-04-17T10:07:18.042Z,1.50
2023-04-17T10:09:46.276Z,1.90
2023-04-17T10:12:18.658Z,1.60
2023-04-17T10:14:51.029Z,2.00
2023-04-17T10:17:28.796Z,2.10
2023-04-17T10:20:17.800Z,1.20
2023-04-17T10:22:49.313Z,1.30
2023-04-17T10:25:18.240Z,1.50
2023-04-17T10:27:48.772Z,1.30
2023-04-17T10:30:17.831Z,1.20
2023-04-17T10:32:46.921Z,1.50
2023-04-17T10:35:18.142Z,1.50
2023-04-17T10:37:52.428Z,1.60
2023-04-17T10:40:21.458Z,2.20
2023-04-17T10:43:11.929Z,1.20
2023-04-17T10:46:12.717Z,1.00
2023-04-17T10:48:53.003Z,1.40
2023-04-17T10:51:25.066Z,1.60
2023-04-17T10:53:57.435Z,1.10
2023-04-17T10:56:41.288Z,1.10
2023-04-17T10:59:11.870Z,1.10
2023-04-17T11:01:50.179Z,1.40
2023-04-17T11:04:23.731Z,1.10
2023-04-17T11:06:55.710Z,1.20
2023-04-17T11:09:25.703Z,1.10
2023-04-17T11:11:54.513Z,1.10
2023-04-17T11:14:23.547Z,1.20
2023-04-17T11:16:52.127Z,1.40
2023-04-17T11:19:24.369Z,1.40
2023-04-17T11:21:53.997Z,1.20
2023-04-17T11:24:24.808Z,1.10
2023-04-17T11:26:54.560Z,0.90
2023-04-17T11:29:23.719Z,1.30
2023-04-17T11:31:54.008Z,0.80
2023-04-17T11:34:25.820Z,1.40
2023-04-17T11:36:58.292Z,0.90
2023-04-17T11:39:29.002Z,1.20
2023-04-17T11:41:57.346Z,1.10
2023-04-17T11:44:26.063Z,1.50
2023-04-17T11:46:55.487Z,1.10
2023-04-17T11:49:31.205Z,1.10
2023-04-17T11:52:00.588Z,1.10
2023-04-17T11:54:34.968Z,1.00
2023-04-17T11:57:12.767Z,1.10
2023-04-17T11:59:42.348Z,1.20
2023-04-17T12:02:10.767Z,1.10
2023-04-17T12:04:40.101Z,1.10
2023-04-17T12:07:09.012Z,1.00
2023-04-17T12:09:37.811Z,1.00
2023-04-17T12:12:06.853Z,0.90
2023-04-17T12:14:36.144Z,1.90
2023-04-17T12:17:04.477Z,1.50
2023-04-17T12:19:33.937Z,0.90
2023-04-17T12:22:02.266Z,1.20
2023-04-17T12:24:30.752Z,1.40
2023-04-17T12:27:01.973Z,1.00
2023-04-17T12:29:43.171Z,1.20
2023-04-17T12:32:12.685Z,1.10
2023-04-17T12:34:41.239Z,1.30
2023-04-17T12:37:09.492Z,1.00
2023-04-17T12:39:37.792Z,1.30
2023-04-17T12:42:06.127Z,1.00
2023-04-17T12:44:34.764Z,1.40
2023-04-17T12:47:02.991Z,1.00
2023-04-17T12:49:31.369Z,0.90
2023-04-17T12:52:02.397Z,1.00
2023-04-17T12:54:32.394Z,0.90
2023-04-17T12:57:01.730Z,1.80
2023-04-17T12:59:29.954Z,1.10
2023-04-17T13:02:04.119Z,1.10
2023-04-17T13:04:33.305Z,1.00
2023-04-17T13:07:01.776Z,1.00
2023-04-17T13:09:30.423Z,0.80
2023-04-17T13:11:58.610Z,1.50
2023-04-17T13:14:26.864Z,1.00
2023-04-17T13:16:55.162Z,0.90
2023-04-17T13:19:23.831Z,1.20
2023-04-17T13:21:52.270Z,1.30
2023-04-17T13:24:20.597Z,1.30
2023-04-17T13:26:49.190Z,1.30
2023-04-17T13:29:19.551Z,1.60
2023-04-17T13:31:48.417Z,1.60
2023-04-17T13:34:16.724Z,1.50
2023-04-17T13:36:45.207Z,0.90
2023-04-17T13:39:13.837Z,0.90
2023-04-17T13:41:42.360Z,1.10
2023-04-17T13:44:10.744Z,1.30
2023-04-17T13:46:39.069Z,1.10
2023-04-17T13:49:08.066Z,1.20
2023-04-17T13:51:36.883Z,2.00
2023-04-17T13:54:05.099Z,1.30
2023-04-17T13:56:34.399Z,1.30
2023-04-17T13:59:03.738Z,1.30
2023-04-17T14:01:32.786Z,1.40
2023-04-17T14:04:01.300Z,1.10
2023-04-17T14:06:31.564Z,1.40
2023-04-17T14:09:00.132Z,1.20
2023-04-17T14:11:28.318Z,1.10
2023-04-17T14:13:56.506Z,1.20
2023-04-17T14:16:25.187Z,1.60
2023-04-17T14:18:53.370Z,1.40
2023-04-17T14:21:22.313Z,2.20
2023-04-17T14:23:51.557Z,2.40
2023-04-17T14:26:19.718Z,2.10
2023-04-17T14:28:47.870Z,1.50
2023-04-17T14:31:16.253Z,2.00
2023-04-17T14:33:44.416Z,1.40
2023-04-17T14:36:12.729Z,1.40
2023-04-17T14:38:41.143Z,1.50
2023-04-17T14:41:09.636Z,1.20
2023-04-17T14:43:37.924Z,1.60
2023-04-17T14:46:06.248Z,1.60
2023-04-17T14:48:47.571Z,1.60
2023-04-17T14:51:23.888Z,1.60
2023-04-17T14:53:53.033Z,2.00
2023-04-17T14:56:22.063Z,1.90
2023-04-17T14:58:50.272Z,1.60
2023-04-17T15:01:18.629Z,1.50
2023-04-17T15:03:48.653Z,1.80
2023-04-17T15:06:18.899Z,1.60
2023-04-17T15:08:47.090Z,1.20
2023-04-17T15:11:16.014Z,1.50
2023-04-17T15:13:44.255Z,1.40
2023-04-17T15:16:12.667Z,1.50
2023-04-17T15:18:41.041Z,1.10
2023-04-17T15:21:09.409Z,1.60
2023-04-17T15:23:38.045Z,1.50
2023-04-17T15:26:06.168Z,1.20
2023-04-17T15:28:35.364Z,1.60
2023-04-17T15:31:03.558Z,1.10
2023-04-17T15:33:33.262Z,1.00
2023-04-17T15:36:01.652Z,0.90
2023-04-17T15:38:31.056Z,1.10
2023-04-17T15:40:59.640Z,2.00
2023-04-17T15:43:27.682Z,1.70
2023-04-17T15:45:56.031Z,1.10
2023-04-17T15:48:24.613Z,1.10
2023-04-17T15:50:52.972Z,1.30
2023-04-17T15:53:21.553Z,1.60
2023-04-17T15:55:49.732Z,1.20
2023-04-17T15:58:17.925Z,1.50
2023-04-17T16:00:46.307Z,1.90
2023-04-17T16:03:14.846Z,1.60
2023-04-17T16:05:43.264Z,1.40
2023-04-17T16:08:11.424Z,1.60
2023-04-17T16:10:40.145Z,1.40
2023-04-17T16:13:08.522Z,1.50
2023-04-17T16:15:36.692Z,1.90
2023-04-17T16:18:05.827Z,1.40
2023-04-17T16:20:34.096Z,1.30
2023-04-17T16:23:02.430Z,2.20
2023-04-17T16:25:32.596Z,1.50
2023-04-17T16:28:00.972Z,1.20
2023-04-17T16:30:29.345Z,1.60
2023-04-17T16:32:57.805Z,1.40
2023-04-17T16:35:26.418Z,1.20
2023-04-17T16:37:54.473Z,1.10
2023-04-17T16:40:22.882Z,1.50
2023-04-17T16:42:51.043Z,1.20
2023-04-17T16:45:19.266Z,1.60
2023-04-17T16:47:47.668Z,1.70
2023-04-17T16:50:16.028Z,1.70
2023-04-17T16:52:44.385Z,1.20
2023-04-17T16:55:12.877Z,1.50
2023-04-17T16:57:43.918Z,1.80
2023-04-17T17:00:12.802Z,0.90
2023-04-17T17:02:41.276Z,1.20
2023-04-17T17:05:09.939Z,1.60
2023-04-17T17:07:38.265Z,1.30
2023-04-17T17:10:07.672Z,1.30
2023-04-17T17:12:35.851Z,1.30
2023-04-17T17:15:06.309Z,2.00
2023-04-17T17:17:34.599Z,1.70
2023-04-17T17:20:03.351Z,1.30
2023-04-17T17:22:31.663Z,1.70
2023-04-17T17:25:00.426Z,1.10
2023-04-17T17:27:28.804Z,1.00
2023-04-17T17:29:59.012Z,1.50
2023-04-17T17:32:29.442Z,1.60
2023-04-17T17:34:59.011Z,1.40
2023-04-17T17:37:27.766Z,1.80
2023-04-17T17:39:55.955Z,1.70
2023-04-17T17:42:24.229Z,1.70
2023-04-17T17:44:52.651Z,1.50
2023-04-17T17:47:20.837Z,1.70
2023-04-17T17:49:49.688Z,1.50
2023-04-17T17:52:17.969Z,1.60
2023-04-17T17:54:46.133Z,1.40
2023-04-17T17:57:14.233Z,1.30
2023-04-17T17:59:42.540Z,1.40
2023-04-17T18:02:10.940Z,1.20
2023-04-17T18:04:39.325Z,1.60
2023-04-17T18:07:08.241Z,1.20
2023-04-17T18:09:36.434Z,1.30
2023-04-17T18:12:05.703Z,1.40
2023-04-17T18:14:34.442Z,1.30
2023-04-17T18:17:02.534Z,1.10
2023-04-17T18:19:31.200Z,1.20
2023-04-17T18:21:59.416Z,1.10
2023-04-17T18:24:28.072Z,0.90
2023-04-17T18:26:56.258Z,1.30
2023-04-17T18:29:24.497Z,1.50
2023-04-17T18:31:54.671Z,1.40
2023-04-17T18:34:23.546Z,1.20
2023-04-17T18:36:51.643Z,1.40
2023-04-17T18:39:20.176Z,1.60
2023-04-17T18:41:48.379Z,1.40
2023-04-17T18:44:16.507Z,1.80
2023-04-17T18:46:45.015Z,1.40
2023-04-17T18:49:13.331Z,1.30
2023-04-17T18:51:47.820Z,2.20
2023-04-17T18:54:19.538Z,1.50
2023-04-17T18:56:47.901Z,1.40
2023-04-17T18:59:16.249Z,1.50
2023-04-17T19:01:44.473Z,1.70
2023-04-17T19:04:12.960Z,1.50
2023-04-17T19:06:41.429Z,1.50
2023-04-17T19:09:09.676Z,1.40
2023-04-17T19:11:37.949Z,1.50
2023-04-17T19:14:06.165Z,1.50
2023-04-17T19:16:34.518Z,1.70
2023-04-17T19:19:02.839Z,2.00
2023-04-17T19:21:32.795Z,2.10
2023-04-17T19:24:01.038Z,1.80
2023-04-17T19:26:29.402Z,1.60
2023-04-17T19:28:58.342Z,2.20
2023-04-17T19:31:26.774Z,1.60
2023-04-17T19:33:57.373Z,1.80
2023-04-17T19:36:27.519Z,1.70
2023-04-17T19:38:56.166Z,1.20
2023-04-17T19:41:24.523Z,1.40
2023-04-17T19:43:55.695Z,1.40
2023-04-17T19:46:24.291Z,1.20
2023-04-17T19:48:52.842Z,1.80
2023-04-17T19:51:21.324Z,1.70
2023-04-17T19:53:49.568Z,1.60
2023-04-17T19:56:17.774Z,1.50
2023-04-17T19:58:46.562Z,1.70
2023-04-17T20:01:15.337Z,1.80
2023-04-17T20:03:45.532Z,1.90
2023-04-17T20:06:14.193Z,2.00
2023-04-17T20:08:42.526Z,2.60
2023-04-17T20:11:12.324Z,2.20
2023-04-17T20:13:41.485Z,2.10
2023-04-17T20:16:09.659Z,2.50
2023-04-17T20:18:38.142Z,2.70
2023-04-17T20:21:07.279Z,2.20
2023-04-17T20:23:35.442Z,2.70
2023-04-17T20:26:03.817Z,2.80
2023-04-17T20:28:31.993Z,2.70
2023-04-17T20:31:00.460Z,3.20
2023-04-17T20:33:28.847Z,3.00
2023-04-17T20:35:57.139Z,3.30
2023-04-17T20:38:25.861Z,3.00
2023-04-17T20:40:54.161Z,2.60
2023-04-17T20:43:22.401Z,2.50
2023-04-17T20:45:50.905Z,1.90
2023-04-17T20:48:19.077Z,2.10
2023-04-17T20:50:47.537Z,2.40
2023-04-17T20:53:16.025Z,2.00
2023-04-17T20:55:44.304Z,2.10
2023-04-17T20:58:12.623Z,2.20
2023-04-17T21:00:47.622Z,2.10
2023-04-17T21:03:26.909Z,2.00
2023-04-17T21:05:55.954Z,2.40
2023-04-17T21:08:24.271Z,2.80
2023-04-17T21:10:52.444Z,2.10
2023-04-17T21:13:22.123Z,1.80
2023-04-17T21:15:50.319Z,2.60
2023-04-17T21:18:19.352Z,1.80
2023-04-17T21:20:47.682Z,1.90
2023-04-17T21:23:15.964Z,2.20
2023-04-17T21:25:44.126Z,2.00
2023-04-17T21:28:12.333Z,1.90
2023-04-17T21:30:40.726Z,2.30
2023-04-17T21:33:08.826Z,2.20
2023-04-17T21:35:38.019Z,2.60
2023-04-17T21:38:06.093Z,2.10
2023-04-17T21:40:36.839Z,1.90
2023-04-17T21:43:05.616Z,2.10
2023-04-17T21:45:33.940Z,1.50
2023-04-17T21:48:03.571Z,2.30
2023-04-17T21:50:31.982Z,3.20
2023-04-17T21:53:00.754Z,2.10
2023-04-17T21:55:29.150Z,2.60
2023-04-17T21:57:57.359Z,2.40
2023-04-17T22:00:25.636Z,2.00
2023-04-17T22:02:54.054Z,1.80
2023-04-17T22:05:22.365Z,2.20
2023-04-17T22:07:54.799Z,1.70
2023-04-17T22:10:24.307Z,1.80
2023-04-17T22:12:52.498Z,1.80
2023-04-17T22:15:20.814Z,2.50
2023-04-17T22:17:49.130Z,2.20
2023-04-17T22:20:17.386Z,2.50
2023-04-17T22:22:46.993Z,1.50
2023-04-17T22:25:15.162Z,1.60
2023-04-17T22:27:43.667Z,2.40
2023-04-17T22:30:12.498Z,1.50
2023-04-17T22:32:41.066Z,1.90
2023-04-17T22:35:09.462Z,2.10
2023-04-17T22:37:38.008Z,2.10
2023-04-17T22:40:07.080Z,2.00
2023-04-17T22:42:35.687Z,2.20
2023-04-17T22:45:04.561Z,2.20
2023-04-17T22:47:33.310Z,2.10
2023-04-17T22:50:02.557Z,2.10
2023-04-17T22:52:30.954Z,2.10
2023-04-17T22:54:59.185Z,1.60
2023-04-17T22:57:27.522Z,2.00
2023-04-17T22:59:55.625Z,2.10
2023-04-17T23:02:24.842Z,2.50
2023-04-17T23:04:53.025Z,1.80
2023-04-17T23:07:21.255Z,1.80
2023-04-17T23:09:49.569Z,2.20
2023-04-17T23:12:17.709Z,2.00
2023-04-17T23:14:46.185Z,2.00
2023-04-17T23:17:14.531Z,2.40
2023-04-17T23:19:42.694Z,2.60
2023-04-17T23:22:11.077Z,1.90
2023-04-17T23:24:39.619Z,2.00
2023-04-17T23:27:07.808Z,2.00
2023-04-17T23:29:36.392Z,1.80
2023-04-17T23:32:06.533Z,2.30
2023-04-17T23:34:36.028Z,1.80
2023-04-17T23:37:04.424Z,2.00
2023-04-17T23:39:32.822Z,1.90
2023-04-17T23:42:06.984Z,2.30
2023-04-17T23:44:35.806Z,1.50
2023-04-17T23:47:04.281Z,2.00
2023-04-17T23:49:33.645Z,3.00
2023-04-17T23:52:02.509Z,2.00
2023-04-17T23:54:30.982Z,1.90
2023-04-17T23:56:59.366Z,2.40
2023-04-17T23:59:27.599Z,2.60
